Thunder radar more information blitzortung!


Radar de pluja more information rain snow radar


Visita la nostra xarxa de llocs de meteo:

Template documentation
and downloads

And another site



No particular awareness of the weather is required.    There are no Weather-warnings

Pagina Historial Weather Underground text

Diari Resum May 16, 2017 Unitats:  Imperial    Mètric   Tant
« Previous Dia
SegĂźent Dia »
Diari Setmana Mensual Anual Personalitzada
  Maxima: Minima: Media:
Temperatura: TemperatureC °F 14.9 °F 23 °F
Punt de rosada: DewpointC °F 5.7 °F 9.7 °F
Humitat: Humidity % 28 % 45 %
Wind Speed: WindSpeedKMH mph 0.0 mph 6.6 mph
RĂ fegues de vent: WindSpeedGustKMH mph - -
Vent:- - SSE
Pression baro: PressurehPa in 1022.9 in -
Precipitacions: 0.0 in    
Historical Graphs
 
 
Dades de taula per May 16, 2017
Temps Temperatura Punt de rosada Pression baro Vent Wind Speed RĂ fegues de vent Humitat Rainfall Rate (Hourly)
TemperatureC °F DewpointC °F PressurehPa in Calm     Humidity % HourlyPrecipMM in
00:03 18.4 °F 10.2 °F 1026.0 in Calm     59 % 0.0 in
00:05 15.6 °F 10.2 °F 1026.0 in Calm   1.6 mph 70 % 0.0 in
00:15 15.4 °F 9.9 °F 1026.0 in Calm     70 % 0.0 in
00:25 15.3 °F 9.8 °F 1026.0 in Calm     70 % 0.0 in
00:35 15.3 °F 9.8 °F 1026.0 in Calm   1.6 mph 70 % 0.0 in
00:45 15.3 °F 9.8 °F 1026.0 in Calm   3.2 mph 70 % 0.0 in
01:05 15.3 °F 9.8 °F 1026.0 in Calm     70 % 0.0 in
01:15 15.2 °F 10.0 °F 1024.9 in Calm   1.6 mph 71 % 0.0 in
01:25 14.9 °F 9.5 °F 1026.0 in WSW 1.6 mph 1.6 mph 70 % 0.0 in
01:35 14.9 °F 9.5 °F 1026.0 in WSW 3.2 mph 3.2 mph 70 % 0.0 in
01:45 14.9 °F 9.5 °F 1026.0 in WSW 3.2 mph 3.2 mph 70 % 0.0 in
01:55 14.9 °F 9.7 °F 1026.0 in Calm   3.2 mph 71 % 0.0 in
02:05 14.9 °F 9.9 °F 1026.0 in Calm     72 % 0.0 in
02:15 15.4 °F 10.4 °F 1026.0 in Calm   1.6 mph 72 % 0.0 in
02:25 15.8 °F 10.6 °F 1026.0 in Calm     71 % 0.0 in
02:35 16.2 °F 10.9 °F 1026.0 in Calm     71 % 0.0 in
02:45 16.3 °F 10.8 °F 1026.0 in SSE 1.6 mph 1.6 mph 70 % 0.0 in
02:55 16.9 °F 11.2 °F 1026.0 in East 1.6 mph 3.2 mph 69 % 0.0 in
03:05 16.8 °F 10.8 °F 1026.0 in ESE 1.6 mph 3.2 mph 68 % 0.0 in
03:15 16.8 °F 10.8 °F 1026.0 in SSW 1.6 mph 3.2 mph 68 % 0.0 in
03:25 16.9 °F 10.9 °F 1026.0 in SW 1.6 mph 3.2 mph 68 % 0.0 in
03:35 17.3 °F 10.9 °F 1026.0 in SW 3.2 mph 4.8 mph 66 % 0.0 in
03:45 18.8 °F 12.3 °F 1026.0 in SSW 1.6 mph 1.6 mph 66 % 0.0 in
03:55 19.0 °F 11.6 °F 1026.0 in SSW 1.6 mph 3.2 mph 62 % 0.0 in
04:05 19.5 °F 12.0 °F 1026.0 in SW 1.6 mph 3.2 mph 62 % 0.0 in
04:15 20.7 °F 12.7 °F 1026.0 in South 1.6 mph 3.2 mph 60 % 0.0 in
04:25 21.0 °F 12.4 °F 1026.0 in ENE 1.6 mph 4.8 mph 58 % 0.0 in
04:35 21.4 °F 12.8 °F 1026.0 in NE 1.6 mph 4.8 mph 58 % 0.0 in
04:45 21.2 °F 12.3 °F 1026.0 in ENE 3.2 mph 4.8 mph 57 % 0.0 in
04:55 21.4 °F 12.5 °F 1026.0 in NE 8.0 mph 9.7 mph 57 % 0.0 in
05:05 22.2 °F 12.7 °F 1026.0 in NE 3.2 mph 6.4 mph 55 % 0.0 in
05:15 22.7 °F 13.2 °F 1026.0 in ENE 1.6 mph 4.8 mph 55 % 0.0 in
05:25 23.2 °F 13.1 °F 1026.0 in NE 1.6 mph 6.4 mph 53 % 0.0 in
05:35 23.3 °F 12.3 °F 1026.0 in NNE 4.8 mph 6.4 mph 50 % 0.0 in
05:45 24.1 °F 13.0 °F 1026.0 in East 3.2 mph 4.8 mph 50 % 0.0 in
10:46 24.1 °F 13.0 °F 1026.0 in ENE 1.9 mph   50 % 0.0 in
10:51 24.2 °F 13.1 °F 1026.0 in NNE 7.4 mph 7.4 mph 50 % 0.0 in
10:56 24.5 °F 13.1 °F 1026.0 in NE 7.4 mph 7.4 mph 49 % 0.0 in
11:01 24.4 °F 13.0 °F 1026.0 in ENE 7.9 mph 7.9 mph 49 % 0.0 in
11:06 24.4 °F 12.7 °F 1026.0 in ESE 5.6 mph 5.6 mph 48 % 0.0 in
11:11 24.8 °F 13.1 °F 1026.0 in ENE 9.3 mph 9.3 mph 48 % 0.0 in
11:16 25.1 °F 13.3 °F 1026.0 in NNE 5.6 mph 5.6 mph 48 % 0.0 in
11:21 25.0 °F 12.9 °F 1026.0 in East 5.6 mph 5.6 mph 47 % 0.0 in
11:26 25.1 °F 13.0 °F 1026.0 in East 9.3 mph 9.3 mph 47 % 0.0 in
11:31 24.9 °F 12.8 °F 1026.0 in East 9.3 mph 9.3 mph 47 % 0.0 in
11:36 25.0 °F 12.6 °F 1026.0 in ENE 11.1 mph 11.1 mph 46 % 0.0 in
11:41 25.2 °F 12.8 °F 1024.9 in ENE 7.4 mph 7.4 mph 46 % 0.0 in
11:46 25.6 °F 13.1 °F 1024.9 in ESE 9.3 mph 9.3 mph 46 % 0.0 in
11:51 25.8 °F 12.9 °F 1024.9 in ENE 7.4 mph 7.4 mph 45 % 0.0 in
11:56 26.1 °F 13.2 °F 1026.0 in ESE 9.5 mph 9.5 mph 45 % 0.0 in
12:01 26.2 °F 13.3 °F 1026.0 in ESE 7.4 mph 7.4 mph 45 % 0.0 in
12:06 26.5 °F 13.3 °F 1026.0 in SE 7.4 mph 7.4 mph 44 % 0.0 in
12:11 26.5 °F 13.3 °F 1026.0 in NNE 7.4 mph 7.4 mph 44 % 0.0 in
12:16 26.4 °F 12.4 °F 1026.0 in North 5.0 mph 5.0 mph 42 % 0.0 in
12:21 27.1 °F 12.7 °F 1026.0 in SSE 7.4 mph 7.4 mph 41 % 0.0 in
12:26 26.9 °F 12.6 °F 1026.0 in SE 9.7 mph 9.7 mph 41 % 0.0 in
12:31 26.6 °F 12.3 °F 1026.0 in ESE 7.4 mph 7.4 mph 41 % 0.0 in
12:36 26.6 °F 12.3 °F 1026.0 in SE 13.0 mph 13.0 mph 41 % 0.0 in
12:41 26.7 °F 12.3 °F 1026.0 in NE 9.3 mph 9.3 mph 41 % 0.0 in
12:46 26.7 °F 12.3 °F 1026.0 in ENE 14.8 mph 14.8 mph 41 % 0.0 in
12:51 27.1 °F 12.7 °F 1026.0 in ENE 9.5 mph 9.5 mph 41 % 0.0 in
12:56 27.1 °F 12.3 °F 1024.9 in East 9.7 mph 9.7 mph 40 % 0.0 in
13:01 27.1 °F 12.3 °F 1024.9 in ESE 9.3 mph 9.3 mph 40 % 0.0 in
13:06 26.8 °F 12.1 °F 1024.9 in SE 11.1 mph 11.1 mph 40 % 0.0 in
13:11 26.8 °F 12.1 °F 1026.0 in SE 13.0 mph 13.0 mph 40 % 0.0 in
13:16 26.7 °F 12.0 °F 1026.0 in ESE 15.6 mph 15.6 mph 40 % 0.0 in
13:21 26.4 °F 11.7 °F 1026.0 in East 18.5 mph 18.5 mph 40 % 0.0 in
13:26 26.5 °F 11.8 °F 1024.9 in SE 15.8 mph 15.8 mph 40 % 0.0 in
13:31 26.5 °F 11.8 °F 1024.9 in ENE 16.7 mph 16.7 mph 40 % 0.0 in
13:36 26.7 °F 12.0 °F 1024.9 in SSE 13.0 mph 13.0 mph 40 % 0.0 in
13:41 26.4 °F 11.3 °F 1023.9 in ESE 16.9 mph 16.9 mph 39 % 0.0 in
13:46 26.7 °F 12.0 °F 1023.9 in East 9.3 mph 9.3 mph 40 % 0.0 in
13:51 26.5 °F 11.4 °F 1023.9 in East 13.0 mph 13.0 mph 39 % 0.0 in
13:56 26.4 °F 11.3 °F 1023.9 in SE 14.8 mph 14.8 mph 39 % 0.0 in
14:01 26.8 °F 11.7 °F 1023.9 in SE 17.5 mph 17.5 mph 39 % 0.0 in
14:06 27.1 °F 11.9 °F 1023.9 in ESE 16.1 mph 16.1 mph 39 % 0.0 in
14:11 26.4 °F 11.3 °F 1023.9 in NNE 18.5 mph 18.5 mph 39 % 0.0 in
14:16 26.5 °F 11.4 °F 1023.9 in ESE 14.8 mph 14.8 mph 39 % 0.0 in
14:21 26.2 °F 11.2 °F 1023.9 in ESE 20.4 mph 20.4 mph 39 % 0.0 in
14:26 26.1 °F 11.1 °F 1023.9 in ESE 16.7 mph 16.7 mph 39 % 0.0 in
14:31 26.3 °F 11.2 °F 1023.9 in ESE 9.3 mph 9.3 mph 39 % 0.0 in
14:36 26.0 °F 10.9 °F 1023.9 in ESE 15.6 mph 15.6 mph 39 % 0.0 in
14:41 26.0 °F 10.9 °F 1023.9 in ESE 20.4 mph 20.4 mph 39 % 0.0 in
14:46 26.2 °F 11.6 °F 1023.9 in ESE 13.0 mph 13.0 mph 40 % 0.0 in
14:51 26.3 °F 11.6 °F 1023.9 in ESE 16.1 mph 16.1 mph 40 % 0.0 in
14:56 26.3 °F 11.6 °F 1023.9 in ENE 14.8 mph 14.8 mph 40 % 0.0 in
15:01 26.2 °F 11.6 °F 1023.9 in ENE 14.8 mph 14.8 mph 40 % 0.0 in
15:06 26.3 °F 11.6 °F 1023.9 in ESE 7.4 mph 7.4 mph 40 % 0.0 in
15:11 26.3 °F 11.6 °F 1023.9 in ESE 11.1 mph 11.1 mph 40 % 0.0 in
15:16 26.1 °F 11.4 °F 1023.9 in ENE 13.0 mph 13.0 mph 40 % 0.0 in
15:21 26.1 °F 11.4 °F 1023.9 in ENE 14.8 mph 14.8 mph 40 % 0.0 in
15:26 26.3 °F 11.6 °F 1023.9 in ENE 16.7 mph 16.7 mph 40 % 0.0 in
15:31 26.2 °F 11.6 °F 1023.9 in ESE 13.0 mph 13.0 mph 40 % 0.0 in
15:36 26.1 °F 11.4 °F 1023.9 in NNE 9.3 mph 9.3 mph 40 % 0.0 in
15:37 26.1 °F 11.8 °F 1023.9 in NNE 9.3 mph 9.3 mph 41 % 0.0 in
15:42 26.6 °F 11.9 °F 1023.9 in SW 9.3 mph 9.3 mph 40 % 0.0 in
15:47 28.4 °F 12.7 °F 1023.9 in ESE 5.6 mph 5.6 mph 38 % 0.0 in
15:52 28.5 °F 12.0 °F 1023.9 in South 9.3 mph 9.3 mph 36 % 0.0 in
15:57 29.2 °F 12.2 °F 1023.9 in SSE 5.8 mph 5.8 mph 35 % 0.0 in
16:02 29.4 °F 11.9 °F 1023.9 in SSE 13.0 mph 13.0 mph 34 % 0.0 in
16:07 29.0 °F 10.2 °F 1023.9 in WSW 15.6 mph 15.6 mph 31 % 0.0 in
16:12 29.2 °F 10.3 °F 1023.9 in SW 11.1 mph 11.1 mph 31 % 0.0 in
16:17 29.3 °F 10.4 °F 1023.9 in SW 11.1 mph 11.1 mph 31 % 0.0 in
16:22 29.3 °F 9.9 °F 1023.9 in SW 10.0 mph 10.0 mph 30 % 0.0 in
16:27 29.3 °F 9.4 °F 1023.9 in ESE 11.1 mph 11.1 mph 29 % 0.0 in
16:32 29.4 °F 9.5 °F 1023.9 in SSW 11.1 mph 11.1 mph 29 % 0.0 in
16:37 29.3 °F 8.9 °F 1023.9 in SW 13.7 mph 13.7 mph 28 % 0.0 in
16:42 28.9 °F 9.1 °F 1023.9 in SW 13.0 mph 13.0 mph 29 % 0.0 in
16:47 28.7 °F 8.9 °F 1023.9 in SW 13.0 mph 13.0 mph 29 % 0.0 in
16:52 29.0 °F 8.7 °F 1023.9 in South 9.3 mph 9.3 mph 28 % 0.0 in
16:57 29.0 °F 8.7 °F 1022.9 in WSW 7.4 mph 7.4 mph 28 % 0.0 in
17:02 29.1 °F 8.7 °F 1022.9 in SW 13.0 mph 13.0 mph 28 % 0.0 in
17:07 28.6 °F 8.3 °F 1022.9 in SW 18.5 mph 18.5 mph 28 % 0.0 in
17:12 28.4 °F 8.1 °F 1023.9 in WSW 18.5 mph 18.5 mph 28 % 0.0 in
17:17 28.2 °F 7.9 °F 1023.9 in SW 16.7 mph 16.7 mph 28 % 0.0 in
17:22 28.2 °F 7.9 °F 1023.9 in South 20.4 mph 20.4 mph 28 % 0.0 in
17:27 28.5 °F 8.2 °F 1023.9 in SW 5.6 mph 5.6 mph 28 % 0.0 in
17:32 28.6 °F 8.3 °F 1023.9 in SW 9.0 mph 9.0 mph 28 % 0.0 in
17:37 28.2 °F 7.9 °F 1023.9 in SSW 13.0 mph 13.0 mph 28 % 0.0 in
17:42 28.5 °F 8.2 °F 1023.9 in SW 13.0 mph 13.0 mph 28 % 0.0 in
17:47 28.5 °F 8.2 °F 1023.9 in SW 11.1 mph 11.1 mph 28 % 0.0 in
17:52 28.2 °F 7.9 °F 1023.9 in SW 14.8 mph 14.8 mph 28 % 0.0 in
17:57 28.2 °F 7.9 °F 1023.9 in WSW 13.0 mph 13.0 mph 28 % 0.0 in
18:02 28.0 °F 8.3 °F 1023.9 in SW 22.2 mph 22.2 mph 29 % 0.0 in
18:07 28.0 °F 7.8 °F 1023.9 in SSE 9.3 mph 9.3 mph 28 % 0.0 in
18:12 28.2 °F 8.5 °F 1023.9 in SW 7.4 mph 7.4 mph 29 % 0.0 in
18:17 27.9 °F 8.2 °F 1023.9 in SW 13.0 mph 13.0 mph 29 % 0.0 in
18:22 27.7 °F 8.1 °F 1023.9 in SW 13.0 mph 13.0 mph 29 % 0.0 in
18:27 27.7 °F 8.1 °F 1023.9 in WSW 11.1 mph 11.1 mph 29 % 0.0 in
18:32 27.6 °F 7.9 °F 1023.9 in SSW 9.3 mph 9.3 mph 29 % 0.0 in
18:37 27.4 °F 7.3 °F 1023.9 in SW 19.5 mph 19.5 mph 28 % 0.0 in
18:42 27.3 °F 7.2 °F 1023.9 in SW 11.1 mph 11.1 mph 28 % 0.0 in
18:47 27.1 °F 7.0 °F 1023.9 in SSW 9.3 mph 9.3 mph 28 % 0.0 in
18:52 27.4 °F 7.8 °F 1023.9 in SW 9.3 mph 9.3 mph 29 % 0.0 in
18:57 27.3 °F 7.7 °F 1024.9 in South 9.3 mph 9.3 mph 29 % 0.0 in
19:02 27.2 °F 7.6 °F 1024.9 in SW 7.9 mph 7.9 mph 29 % 0.0 in
19:07 26.8 °F 7.3 °F 1024.9 in SW 9.3 mph 9.3 mph 29 % 0.0 in
19:12 26.6 °F 7.1 °F 1023.9 in South 7.4 mph 7.4 mph 29 % 0.0 in
19:15 18.9 °F 9.4 °F 1026.0 in Calm   1.6 mph 54 % 0.0 in
19:17 26.7 °F 7.2 °F 1023.9 in SW 5.6 mph 5.6 mph 29 % 0.0 in
19:22 26.5 °F 7.0 °F 1023.9 in SW 7.6 mph 7.6 mph 29 % 0.0 in
19:25 18.7 °F 9.7 °F 1026.0 in Calm   1.6 mph 56 % 0.0 in
19:27 26.4 °F 7.4 °F 1023.9 in South 5.6 mph 5.6 mph 30 % 0.0 in
19:32 26.0 °F 6.6 °F 1023.9 in WSW 11.1 mph 11.1 mph 29 % 0.0 in
19:35 18.6 °F 9.9 °F 1026.0 in Calm     57 % 0.0 in
19:37 26.0 °F 6.6 °F 1023.9 in SW 11.1 mph 11.1 mph 29 % 0.0 in
19:42 25.7 °F 6.3 °F 1024.9 in SW 9.3 mph 9.3 mph 29 % 0.0 in
19:45 18.4 °F 10.0 °F 1026.0 in Calm     58 % 0.0 in
19:47 25.5 °F 6.7 °F 1024.9 in SW 9.3 mph 9.3 mph 30 % 0.0 in
19:52 25.4 °F 6.6 °F 1024.9 in SW 9.7 mph 9.7 mph 30 % 0.0 in
19:55 18.3 °F 10.2 °F 1026.0 in Calm   1.6 mph 59 % 0.0 in
19:57 25.2 °F 6.4 °F 1024.9 in WSW 6.9 mph 6.9 mph 30 % 0.0 in
20:02 25.0 °F 6.2 °F 1024.9 in WSW 7.4 mph 7.4 mph 30 % 0.0 in
20:05 18.3 °F 10.4 °F 1026.0 in NNE 1.6 mph 3.2 mph 60 % 0.0 in
20:07 24.8 °F 6.5 °F 1024.9 in SW 9.3 mph 9.3 mph 31 % 0.0 in
20:12 24.7 °F 6.4 °F 1024.9 in SW 7.4 mph 7.4 mph 31 % 0.0 in
20:15 18.2 °F 10.8 °F 1024.9 in Calm   3.2 mph 62 % 0.0 in
20:17 24.5 °F 6.3 °F 1024.9 in SW 7.4 mph 7.4 mph 31 % 0.0 in
20:22 24.3 °F 6.1 °F 1024.9 in SSW 9.3 mph 9.3 mph 31 % 0.0 in
20:25 18.1 °F 10.7 °F 1026.0 in Calm   1.6 mph 62 % 0.0 in
20:27 24.1 °F 5.9 °F 1026.0 in SSW 5.6 mph 5.6 mph 31 % 0.0 in
20:32 23.9 °F 5.7 °F 1026.0 in SW 7.4 mph 7.4 mph 31 % 0.0 in
20:37 23.7 °F 6.0 °F 1026.0 in SSW 7.4 mph 7.4 mph 32 % 0.0 in
20:42 23.5 °F 5.8 °F 1026.0 in SW 3.7 mph 3.7 mph 32 % 0.0 in
20:45 17.7 °F 10.6 °F 1026.0 in Calm   3.2 mph 63 % 0.0 in
20:47 23.3 °F 5.7 °F 1026.0 in SW 5.6 mph 5.6 mph 32 % 0.0 in
20:52 23.0 °F 5.8 °F 1026.0 in South 7.4 mph 7.4 mph 33 % 0.0 in
20:55 17.5 °F 10.4 °F 1026.0 in NE 1.6 mph 1.6 mph 63 % 0.0 in
20:57 22.8 °F 6.1 °F 1023.9 in SW 4.7 mph 4.7 mph 34 % 0.0 in
21:02 22.7 °F 6.0 °F 1023.9 in West 7.4 mph 7.4 mph 34 % 0.0 in
21:05 17.4 °F 9.8 °F 1026.0 in Calm   1.6 mph 61 % 0.0 in
21:07 22.5 °F 6.3 °F 1023.9 in WSW 5.6 mph 5.6 mph 35 % 0.0 in
21:12 22.4 °F 6.6 °F 1023.9 in SW 3.7 mph 3.7 mph 36 % 0.0 in
21:15 17.3 °F 9.9 °F 1026.0 in Calm     62 % 0.0 in
21:17 22.2 °F 6.4 °F 1023.9 in WSW 3.7 mph 3.7 mph 36 % 0.0 in
21:22 22.1 °F 6.7 °F 1023.9 in SW 3.7 mph 3.7 mph 37 % 0.0 in
21:25 17.1 °F 9.8 °F 1026.0 in SSE 1.6 mph 3.2 mph 62 % 0.0 in
21:27 22.0 °F 6.6 °F 1023.9 in SW 3.7 mph 3.7 mph 37 % 0.0 in
21:32 21.9 °F 6.6 °F 1023.9 in SW 3.7 mph 3.7 mph 37 % 0.0 in
21:35 17.0 °F 10.1 °F 1026.0 in Calm   1.6 mph 64 % 0.0 in
21:37 21.8 °F 6.8 °F 1023.9 in Calm     38 % 0.0 in
21:42 21.7 °F 6.8 °F 1023.9 in West 1.9 mph   38 % 0.0 in
21:45 16.9 °F 10.3 °F 1024.9 in South 1.6 mph 1.6 mph 65 % 0.0 in
21:47 21.6 °F 6.7 °F 1023.9 in West 2.3 mph   38 % 0.0 in
21:52 21.5 °F 6.9 °F 1023.9 in Calm     39 % 0.0 in
21:55 16.8 °F 10.2 °F 1024.9 in East 1.6 mph 3.2 mph 65 % 0.0 in
21:57 21.3 °F 6.8 °F 1024.9 in Calm     39 % 0.0 in
22:02 21.3 °F 6.8 °F 1024.9 in Calm     39 % 0.0 in
22:05 16.7 °F 9.8 °F 1024.9 in Calm   1.6 mph 64 % 0.0 in
22:07 21.2 °F 6.7 °F 1024.9 in Calm     39 % 0.0 in
22:12 21.1 °F 6.9 °F 1024.9 in Calm     40 % 0.0 in
22:15 16.6 °F 9.8 °F 1023.9 in Calm   3.2 mph 64 % 0.0 in
22:17 21.0 °F 6.9 °F 1024.9 in Calm     40 % 0.0 in
22:22 20.9 °F 7.2 °F 1024.9 in Calm     41 % 0.0 in
22:25 16.2 °F 9.6 °F 1023.9 in Calm   1.6 mph 65 % 0.0 in
22:27 20.8 °F 7.1 °F 1026.0 in West 1.9 mph   41 % 0.0 in
22:32 20.8 °F 7.4 °F 1026.0 in West 1.9 mph   42 % 0.0 in
22:35 15.9 °F 9.3 °F 1023.9 in Calm   1.6 mph 65 % 0.0 in
22:37 20.7 °F 7.3 °F 1026.0 in West 1.9 mph   42 % 0.0 in
22:42 20.6 °F 7.2 °F 1026.0 in Calm     42 % 0.0 in
22:45 15.7 °F 9.4 °F 1023.9 in Calm   3.2 mph 66 % 0.0 in
22:47 20.6 °F 7.6 °F 1026.0 in Calm     43 % 0.0 in
22:52 20.5 °F 7.5 °F 1026.0 in West 1.9 mph   43 % 0.0 in
22:55 15.6 °F 9.3 °F 1023.9 in Calm     66 % 0.0 in
22:57 20.4 °F 7.7 °F 1026.0 in East 3.7 mph 3.7 mph 44 % 0.0 in
23:02 20.4 °F 7.7 °F 1026.0 in East 1.9 mph 1.9 mph 44 % 0.0 in
23:05 15.6 °F 9.3 °F 1023.9 in Calm     66 % 0.0 in
23:07 20.2 °F 8.2 °F 1026.0 in East 1.9 mph   46 % 0.0 in
23:12 20.1 °F 8.7 °F 1026.0 in Calm     48 % 0.0 in
23:15 15.7 °F 9.4 °F 1023.9 in Calm     66 % 0.0 in
23:17 20.0 °F 8.9 °F 1026.0 in Calm     49 % 0.0 in
23:22 19.9 °F 9.2 °F 1026.0 in East 1.4 mph   50 % 0.0 in
23:25 15.6 °F 9.3 °F 1023.9 in WSW 1.6 mph 3.2 mph 66 % 0.0 in
23:27 19.8 °F 9.1 °F 1026.0 in Calm     50 % 0.0 in
23:32 19.5 °F 8.8 °F 1026.0 in Calm     50 % 0.0 in
23:35 15.3 °F 9.2 °F 1023.9 in Calm     67 % 0.0 in
23:37 19.4 °F 8.7 °F 1026.0 in Calm     50 % 0.0 in
23:42 19.3 °F 8.6 °F 1026.0 in Calm     50 % 0.0 in
23:45 15.2 °F 9.1 °F 1023.9 in Calm     67 % 0.0 in
23:47 19.2 °F 8.8 °F 1026.0 in Calm     51 % 0.0 in
23:52 19.1 °F 8.7 °F 1026.0 in SSW 2.6 mph 2.6 mph 51 % 0.0 in
23:55 15.1 °F 9.0 °F 1023.9 in Calm     67 % 0.0 in
23:57 19.0 °F 8.9 °F 1026.0 in SSW 1.9 mph 1.9 mph 52 % 0.0 in
Meteo Sesrovires
Elogis d' Weather Underground - 1.5 mb

Guio original per  Jim McMurry - jmcmurry@mwt.net Adaptat per a la plantilla per  Wim van der Kuil - Leuven-Template.eu

Trobareu la nostra informacio del temps tambe a:

Weather Underground

AWEKAS